createdAt,value
2018-11-26T00:01:14.440Z,100688.48
2018-11-26T00:03:46.271Z,100687.95
2018-11-26T00:06:16.281Z,100693.67
2018-11-26T00:08:46.775Z,100685.84
2018-11-26T00:11:29.429Z,100694.05
2018-11-26T00:13:59.609Z,100696.61
2018-11-26T00:16:29.694Z,100690.56
2018-11-26T00:19:00.355Z,100685.92
2018-11-26T00:21:30.424Z,100692.62
2018-11-26T00:24:01.037Z,100682.06
2018-11-26T00:26:31.098Z,100687.20
2018-11-26T00:29:02.089Z,100682.19
2018-11-26T00:31:32.361Z,100683.47
2018-11-26T00:34:03.052Z,100677.96
2018-11-26T00:36:33.129Z,100675.77
2018-11-26T00:39:06.046Z,100675.62
2018-11-26T00:41:37.641Z,100673.70
2018-11-26T00:44:08.467Z,100678.78
2018-11-26T00:46:38.548Z,100677.09
2018-11-26T00:49:08.617Z,100681.06
2018-11-26T00:51:38.575Z,100682.64
2018-11-26T00:54:09.920Z,100682.77
2018-11-26T00:56:41.110Z,100678.70
2018-11-26T00:59:11.127Z,100675.97
2018-11-26T01:01:41.716Z,100671.13
2018-11-26T01:04:11.770Z,100670.50
2018-11-26T01:06:42.895Z,100683.06
2018-11-26T01:09:12.860Z,100669.75
2018-11-26T01:11:44.248Z,100675.80
2018-11-26T01:14:14.232Z,100677.87
2018-11-26T01:16:44.292Z,100681.05
2018-11-26T01:19:15.772Z,100678.50
2018-11-26T01:21:47.320Z,100675.59
2018-11-26T01:24:18.791Z,100677.06
2018-11-26T01:26:50.109Z,100674.84
2018-11-26T01:29:21.724Z,100676.91
2018-11-26T01:31:51.820Z,100678.57
2018-11-26T01:34:22.717Z,100667.55
2018-11-26T01:36:53.589Z,100668.52
2018-11-26T01:39:24.313Z,100672.45
2018-11-26T01:41:55.975Z,100669.16
2018-11-26T01:44:25.971Z,100674.64
2018-11-26T01:46:57.342Z,100674.64
2018-11-26T01:49:28.053Z,100675.97
2018-11-26T01:51:58.744Z,100678.98
2018-11-26T01:54:29.944Z,100675.51
2018-11-26T01:57:00.097Z,100677.16
2018-11-26T01:59:30.384Z,100676.00
2018-11-26T02:02:00.391Z,100676.45
2018-11-26T02:04:31.544Z,100682.80
2018-11-26T02:07:01.950Z,100680.23
2018-11-26T02:09:32.692Z,100686.77
2018-11-26T02:12:03.443Z,100686.95
2018-11-26T02:14:33.477Z,100680.86
2018-11-26T02:17:04.156Z,100683.09
2018-11-26T02:19:36.585Z,100678.30
2018-11-26T02:22:07.377Z,100686.08
2018-11-26T02:24:39.401Z,100682.00
2018-11-26T02:27:10.168Z,100682.27
2018-11-26T02:29:41.661Z,100681.97
2018-11-26T02:32:11.806Z,100676.27
2018-11-26T02:34:43.031Z,100677.96
2018-11-26T02:37:13.144Z,100672.30
2018-11-26T02:39:43.231Z,100668.95
2018-11-26T02:42:13.754Z,100672.84
2018-11-26T02:44:45.455Z,100672.69
2018-11-26T02:47:16.894Z,100673.71
2018-11-26T02:49:47.656Z,100670.20
2018-11-26T02:52:18.277Z,100669.18
2018-11-26T02:54:49.076Z,100672.09
2018-11-26T02:57:19.368Z,100672.16
2018-11-26T02:59:50.536Z,100670.84
2018-11-26T03:02:20.610Z,100677.37
2018-11-26T03:04:51.191Z,100676.54
2018-11-26T03:07:22.600Z,100676.92
2018-11-26T03:09:52.661Z,100667.14
2018-11-26T03:12:23.777Z,100676.27
2018-11-26T03:14:54.340Z,100672.50
2018-11-26T03:17:25.146Z,100675.41
2018-11-26T03:19:56.444Z,100665.63
2018-11-26T03:22:27.023Z,100677.98
2018-11-26T03:24:57.002Z,100676.73
2018-11-26T03:27:27.999Z,100676.58
2018-11-26T03:29:58.657Z,100680.09
2018-11-26T03:32:28.847Z,100682.28
2018-11-26T03:34:59.014Z,100689.70
2018-11-26T03:37:29.640Z,100680.65
2018-11-26T03:40:00.591Z,100683.44
2018-11-26T03:42:31.179Z,100678.95
2018-11-26T03:45:02.457Z,100682.38
2018-11-26T03:47:32.960Z,100680.80
2018-11-26T03:50:04.053Z,100676.91
2018-11-26T03:52:35.711Z,100679.52
2018-11-26T03:55:07.720Z,100684.41
2018-11-26T03:57:39.080Z,100677.05
2018-11-26T04:00:13.140Z,100680.38
2018-11-26T04:02:44.028Z,100689.09
2018-11-26T04:05:15.334Z,100696.44
2018-11-26T04:07:47.613Z,100693.41
2018-11-26T04:10:17.789Z,100689.22
2018-11-26T04:12:49.041Z,100691.16
2018-11-26T04:15:21.737Z,100691.03
2018-11-26T04:17:51.946Z,100693.21
2018-11-26T04:20:22.846Z,100688.46
2018-11-26T04:22:53.026Z,100694.11
2018-11-26T04:25:23.666Z,100688.98
2018-11-26T04:27:54.383Z,100693.41
2018-11-26T04:30:25.186Z,100694.98
2018-11-26T04:32:55.989Z,100695.05
2018-11-26T04:35:26.861Z,100691.16
2018-11-26T04:37:57.579Z,100693.86
2018-11-26T04:40:28.677Z,100688.52
2018-11-26T04:42:59.840Z,100701.91
2018-11-26T04:45:30.690Z,100699.19
2018-11-26T04:48:02.551Z,100702.80
2018-11-26T04:50:34.131Z,100701.50
2018-11-26T04:53:05.451Z,100703.35
2018-11-26T04:55:35.441Z,100713.75
2018-11-26T04:58:06.089Z,100709.48
2018-11-26T05:00:37.517Z,100702.48
2018-11-26T05:03:07.702Z,100707.70
2018-11-26T05:05:37.748Z,100706.27
2018-11-26T05:08:08.009Z,100708.83
2018-11-26T05:10:38.828Z,100710.20
2018-11-26T05:13:08.871Z,100711.23
2018-11-26T05:15:39.077Z,100720.81
2018-11-26T05:18:09.132Z,100713.59
2018-11-26T05:20:39.248Z,100716.19
2018-11-26T05:23:10.089Z,100719.45
2018-11-26T05:25:40.133Z,100721.40
2018-11-26T05:28:11.152Z,100718.95
2018-11-26T05:30:41.706Z,100715.55
2018-11-26T05:33:11.900Z,100729.53
2018-11-26T05:35:42.527Z,100737.16
2018-11-26T05:38:13.476Z,100727.61
2018-11-26T05:40:43.472Z,100724.73
2018-11-26T05:43:14.064Z,100718.77
2018-11-26T05:45:45.604Z,100727.84
2018-11-26T05:48:16.316Z,100729.06
2018-11-26T05:50:46.991Z,100737.22
2018-11-26T05:53:17.251Z,100744.38
2018-11-26T05:55:47.473Z,100735.81
2018-11-26T05:58:18.477Z,100737.63
2018-11-26T06:00:49.793Z,100739.36
2018-11-26T06:03:19.848Z,100744.42
2018-11-26T06:05:51.253Z,100741.09
2018-11-26T06:08:21.831Z,100741.98
2018-11-26T06:10:51.924Z,100744.54
2018-11-26T06:13:21.982Z,100742.89
2018-11-26T06:15:52.672Z,100745.49
2018-11-26T06:18:23.787Z,100752.77
2018-11-26T06:20:54.640Z,100753.50
2018-11-26T06:23:27.916Z,100753.13
2018-11-26T06:25:57.877Z,100752.75
2018-11-26T06:28:28.193Z,100755.20
2018-11-26T06:30:59.000Z,100758.25
2018-11-26T06:33:29.628Z,100760.28
2018-11-26T06:36:00.222Z,100763.65
2018-11-26T06:38:30.379Z,100765.86
2018-11-26T06:41:01.146Z,100768.64
2018-11-26T06:43:32.665Z,100769.11
2018-11-26T06:46:02.980Z,100774.42
2018-11-26T06:48:33.872Z,100769.63
2018-11-26T06:51:04.108Z,100769.61
2018-11-26T06:53:35.129Z,100762.19
2018-11-26T06:56:06.444Z,100763.16
2018-11-26T06:58:37.054Z,100768.19
2018-11-26T07:01:07.629Z,100771.26
2018-11-26T07:03:38.474Z,100780.18
2018-11-26T07:06:08.772Z,100782.94
2018-11-26T07:08:38.849Z,100782.79
2018-11-26T07:11:09.533Z,100786.20
2018-11-26T07:13:41.184Z,100791.62
2018-11-26T07:16:11.251Z,100791.77
2018-11-26T07:18:43.250Z,100800.41
2018-11-26T07:21:13.921Z,100802.55
2018-11-26T07:23:44.058Z,100805.89
2018-11-26T07:26:15.037Z,100798.20
2018-11-26T07:28:45.661Z,100795.38
2018-11-26T07:31:16.847Z,100793.68
2018-11-26T07:33:47.776Z,100792.98
2018-11-26T07:36:18.548Z,100793.94
2018-11-26T07:38:48.545Z,100799.35
2018-11-26T07:41:19.497Z,100802.89
2018-11-26T07:43:51.019Z,100802.91
2018-11-26T07:46:21.249Z,100797.78
2018-11-26T07:48:53.044Z,100797.39
2018-11-26T07:51:23.072Z,100795.86
2018-11-26T07:53:54.033Z,100805.98
2018-11-26T07:56:25.353Z,100806.01
2018-11-26T07:58:56.652Z,100811.20
2018-11-26T08:01:27.562Z,100811.65
2018-11-26T08:03:58.247Z,100817.92
2018-11-26T08:06:28.212Z,100811.55
2018-11-26T08:08:59.529Z,100811.97
2018-11-26T08:11:30.112Z,100811.16
2018-11-26T08:14:00.256Z,100824.80
2018-11-26T08:16:30.390Z,100822.79
2018-11-26T08:19:00.466Z,100826.18
2018-11-26T08:21:31.205Z,100831.62
2018-11-26T08:24:02.521Z,100833.80
2018-11-26T08:26:32.586Z,100831.14
2018-11-26T08:29:03.384Z,100841.08
2018-11-26T08:31:35.092Z,100845.02
2018-11-26T08:34:05.889Z,100837.20
2018-11-26T08:36:41.473Z,100844.02
2018-11-26T08:39:19.043Z,100842.67
2018-11-26T08:41:53.027Z,100833.62
2018-11-26T08:44:27.767Z,100840.50
2018-11-26T08:47:04.533Z,100844.39
2018-11-26T08:49:35.083Z,100845.69
2018-11-26T08:52:05.904Z,100842.31
2018-11-26T08:54:37.133Z,100841.34
2018-11-26T08:57:07.923Z,100837.35
2018-11-26T08:59:37.880Z,100835.08
2018-11-26T09:02:10.000Z,100837.45
2018-11-26T09:04:46.355Z,100838.38
2018-11-26T09:07:16.309Z,100836.31
2018-11-26T09:09:47.752Z,100833.83
2018-11-26T09:12:17.747Z,100839.90
2018-11-26T09:14:47.835Z,100842.24
2018-11-26T09:17:18.777Z,100840.60
2018-11-26T09:19:49.330Z,100838.20
2018-11-26T09:22:19.960Z,100846.42
2018-11-26T09:24:51.487Z,100847.92
2018-11-26T09:27:21.686Z,100849.66
2018-11-26T09:29:51.869Z,100853.05
2018-11-26T09:32:21.911Z,100860.20
2018-11-26T09:34:52.665Z,100860.55
2018-11-26T09:37:23.320Z,100861.09
2018-11-26T09:39:53.389Z,100870.59
2018-11-26T09:42:24.795Z,100865.86
2018-11-26T09:44:54.869Z,100870.58
2018-11-26T09:47:25.453Z,100861.62
2018-11-26T09:49:55.504Z,100863.05
2018-11-26T09:52:26.764Z,100868.80
2018-11-26T09:54:57.620Z,100862.39
2018-11-26T09:57:27.706Z,100870.92
2018-11-26T09:59:58.459Z,100876.90
2018-11-26T10:02:29.165Z,100870.55
2018-11-26T10:05:00.449Z,100873.63
2018-11-26T10:07:31.761Z,100873.91
2018-11-26T10:10:02.073Z,100875.19
2018-11-26T10:12:33.334Z,100870.04
2018-11-26T10:15:04.292Z,100864.93
2018-11-26T10:17:34.491Z,100870.02
2018-11-26T10:20:04.949Z,100869.53
2018-11-26T10:22:35.593Z,100869.00
2018-11-26T10:25:06.659Z,100868.54
2018-11-26T10:27:36.872Z,100862.06
2018-11-26T10:30:12.792Z,100858.24
2018-11-26T10:32:43.355Z,100860.25
2018-11-26T10:35:16.792Z,100861.65
2018-11-26T10:37:49.439Z,100855.98
2018-11-26T10:40:23.595Z,100852.58
2018-11-26T10:42:55.126Z,100854.28
2018-11-26T10:45:26.264Z,100855.22
2018-11-26T10:47:57.164Z,100847.02
2018-11-26T10:50:28.786Z,100850.40
2018-11-26T10:53:00.132Z,100841.82
2018-11-26T10:55:34.035Z,100838.98
2018-11-26T10:58:04.539Z,100844.06
2018-11-26T11:00:39.703Z,100841.38
2018-11-26T11:03:10.391Z,100844.23
2018-11-26T11:05:41.313Z,100834.53
2018-11-26T11:08:13.265Z,100843.42
2018-11-26T11:10:43.489Z,100837.93
2018-11-26T11:13:15.158Z,100832.34
2018-11-26T11:15:45.405Z,100838.27
2018-11-26T11:18:16.060Z,100844.29
2018-11-26T11:20:47.540Z,100841.43
2018-11-26T11:23:18.448Z,100839.05
2018-11-26T11:28:10.775Z,100847.17
2018-11-26T11:30:40.941Z,100844.27
2018-11-26T11:35:40.001Z,100838.30
2018-11-26T11:38:10.791Z,100836.13
2018-11-26T11:40:41.835Z,100834.06
2018-11-26T11:43:12.094Z,100831.05
2018-11-26T11:45:42.618Z,100830.09
2018-11-26T11:48:12.874Z,100835.73
2018-11-26T11:50:43.954Z,100831.84
2018-11-26T11:53:14.107Z,100834.92
2018-11-26T11:55:44.097Z,100835.58
2018-11-26T11:58:14.223Z,100834.30
2018-11-26T12:00:46.188Z,100835.39
2018-11-26T12:03:21.022Z,100835.31
2018-11-26T12:05:51.077Z,100835.31
2018-11-26T12:08:22.587Z,100836.30
2018-11-26T12:10:52.738Z,100833.62
2018-11-26T12:13:23.574Z,100833.22
2018-11-26T12:15:54.315Z,100829.75
2018-11-26T12:18:25.767Z,100830.16
2018-11-26T12:20:57.913Z,100826.38
2018-11-26T12:23:28.949Z,100832.34
2018-11-26T12:26:00.127Z,100826.17
2018-11-26T12:28:31.866Z,100828.34
2018-11-26T12:31:03.125Z,100827.08
2018-11-26T12:33:33.158Z,100829.17
2018-11-26T12:36:03.192Z,100836.11
2018-11-26T12:38:34.143Z,100841.07
2018-11-26T12:41:05.675Z,100839.53
2018-11-26T12:43:37.824Z,100844.05
2018-11-26T12:46:09.566Z,100837.23
2018-11-26T12:48:40.762Z,100835.63
2018-11-26T12:51:12.590Z,100843.09
2018-11-26T12:53:43.556Z,100842.61
2018-11-26T12:56:14.315Z,100837.23
2018-11-26T12:58:44.586Z,100840.20
2018-11-26T13:01:15.305Z,100839.24
2018-11-26T13:03:46.095Z,100838.80
2018-11-26T13:06:17.376Z,100842.92
2018-11-26T13:08:48.046Z,100842.06
2018-11-26T13:11:19.879Z,100841.59
2018-11-26T13:13:51.323Z,100847.16
2018-11-26T13:16:21.346Z,100839.08
2018-11-26T13:18:52.103Z,100835.89
2018-11-26T13:21:23.110Z,100839.22
2018-11-26T13:23:53.088Z,100833.53
2018-11-26T13:26:23.679Z,100831.19
2018-11-26T13:28:53.744Z,100827.91
2018-11-26T13:31:24.903Z,100829.07
2018-11-26T13:33:55.040Z,100828.30
2018-11-26T13:36:25.878Z,100823.22
2018-11-26T13:38:56.229Z,100833.89
2018-11-26T13:41:27.562Z,100826.95
2018-11-26T13:43:58.829Z,100823.86
2018-11-26T13:46:28.933Z,100824.80
2018-11-26T13:48:59.082Z,100822.60
2018-11-26T13:51:29.902Z,100821.32
2018-11-26T13:54:00.567Z,100825.34
2018-11-26T13:56:30.607Z,100818.42
2018-11-26T13:59:02.357Z,100820.40
2018-11-26T14:01:32.778Z,100819.00
2018-11-26T14:04:04.297Z,100820.73
2018-11-26T14:06:34.879Z,100829.34
2018-11-26T14:09:07.823Z,100829.91
2018-11-26T14:11:39.576Z,100829.41
2018-11-26T14:14:11.263Z,100833.34
2018-11-26T14:16:41.290Z,100840.53
2018-11-26T14:19:12.022Z,100841.06
2018-11-26T14:21:42.763Z,100844.52
2018-11-26T14:24:13.265Z,100851.70
2018-11-26T14:26:43.903Z,100842.06
2018-11-26T14:29:14.668Z,100848.25
2018-11-26T14:31:45.478Z,100849.64
2018-11-26T14:34:16.322Z,100845.59
2018-11-26T14:36:46.994Z,100849.33
2018-11-26T14:39:17.086Z,100855.80
2018-11-26T14:41:47.857Z,100858.14
2018-11-26T14:44:18.070Z,100859.01
2018-11-26T14:46:48.811Z,100861.55
2018-11-26T14:49:19.566Z,100857.59
2018-11-26T14:51:49.891Z,100856.72
2018-11-26T14:54:20.486Z,100861.52
2018-11-26T14:56:51.569Z,100861.97
2018-11-26T14:59:21.730Z,100860.87
2018-11-26T15:01:52.413Z,100863.58
2018-11-26T15:04:23.466Z,100867.98
2018-11-26T15:06:54.579Z,100865.81
2018-11-26T15:09:25.349Z,100870.91
2018-11-26T15:11:56.102Z,100866.11
2018-11-26T15:14:27.406Z,100869.52
2018-11-26T15:16:58.152Z,100873.53
2018-11-26T15:19:30.011Z,100870.91
2018-11-26T15:22:00.035Z,100872.17
2018-11-26T15:24:30.154Z,100868.82
2018-11-26T15:27:00.307Z,100875.34
2018-11-26T15:29:30.982Z,100871.08
2018-11-26T15:32:02.042Z,100860.20
2018-11-26T15:34:32.263Z,100869.99
2018-11-26T15:37:04.590Z,100875.09
2018-11-26T15:39:34.766Z,100872.95
2018-11-26T15:42:06.038Z,100873.16
2018-11-26T15:44:36.319Z,100882.37
2018-11-26T15:47:06.474Z,100878.61
2018-11-26T15:49:36.524Z,100883.77
2018-11-26T15:52:07.007Z,100888.60
2018-11-26T15:54:37.746Z,100888.05
2018-11-26T15:57:08.311Z,100889.02
2018-11-26T15:59:38.522Z,100892.45
2018-11-26T16:02:08.618Z,100892.32
2018-11-26T16:04:39.378Z,100893.12
2018-11-26T16:07:09.563Z,100886.98
2018-11-26T16:09:39.737Z,100895.80
2018-11-26T16:12:11.295Z,100896.16
2018-11-26T16:14:42.356Z,100893.68
2018-11-26T16:17:12.444Z,100894.52
2018-11-26T16:19:42.602Z,100893.60
2018-11-26T16:22:13.361Z,100897.03
2018-11-26T16:24:44.050Z,100907.78
2018-11-26T16:27:15.014Z,100909.52
2018-11-26T16:29:45.551Z,100908.72
2018-11-26T16:32:16.290Z,100911.68
2018-11-26T16:34:47.740Z,100918.22
2018-11-26T16:37:18.601Z,100922.83
2018-11-26T16:39:48.794Z,100924.50
2018-11-26T16:42:19.646Z,100922.80
2018-11-26T16:44:49.657Z,100924.08
2018-11-26T16:47:20.098Z,100921.02
2018-11-26T16:49:51.372Z,100921.81
2018-11-26T16:52:22.072Z,100924.50
2018-11-26T16:54:53.369Z,100931.23
2018-11-26T16:57:23.485Z,100933.55
2018-11-26T16:59:55.330Z,100928.69
2018-11-26T17:02:26.670Z,100941.23
2018-11-26T17:04:57.409Z,100943.27
2018-11-26T17:07:28.378Z,100941.23
2018-11-26T17:09:58.514Z,100940.25
2018-11-26T17:12:29.546Z,100944.33
2018-11-26T17:15:00.229Z,100941.71
2018-11-26T17:17:30.903Z,100948.44
2018-11-26T17:20:01.688Z,100945.75
2018-11-26T17:22:31.826Z,100946.16
2018-11-26T17:25:02.706Z,100952.58
2018-11-26T17:27:33.767Z,100955.55
2018-11-26T17:30:05.276Z,100955.95
2018-11-26T17:32:35.412Z,100961.54
2018-11-26T17:35:06.763Z,100962.59
2018-11-26T17:37:42.601Z,100968.70
2018-11-26T17:40:12.145Z,100971.80
2018-11-26T17:42:42.190Z,100969.06
2018-11-26T17:45:13.957Z,100970.35
2018-11-26T17:47:46.652Z,100975.77
2018-11-26T17:50:27.778Z,100976.98
2018-11-26T17:52:59.141Z,100977.39
2018-11-26T17:55:29.970Z,100983.03
2018-11-26T17:57:59.998Z,100983.68
2018-11-26T18:00:34.565Z,100978.58
2018-11-26T18:03:05.722Z,100986.19
2018-11-26T18:05:35.901Z,100991.42
2018-11-26T18:08:14.875Z,100985.77
2018-11-26T18:10:45.269Z,100991.05
2018-11-26T18:13:17.736Z,100993.50
2018-11-26T18:15:49.197Z,100993.14
2018-11-26T18:18:20.511Z,100990.09
2018-11-26T18:20:51.531Z,100995.17
2018-11-26T18:23:22.926Z,100995.17
2018-11-26T18:25:53.758Z,101003.50
2018-11-26T18:28:25.216Z,101006.06
2018-11-26T18:30:55.542Z,101003.02
2018-11-26T18:33:26.384Z,101009.56
2018-11-26T18:35:57.745Z,101012.87
2018-11-26T18:38:28.614Z,101018.00
2018-11-26T18:40:58.828Z,101017.58
2018-11-26T18:43:29.702Z,101020.34
2018-11-26T18:45:59.970Z,101014.64
2018-11-26T18:48:31.226Z,101023.16
2018-11-26T18:51:02.446Z,101017.89
2018-11-26T18:53:32.560Z,101015.08
2018-11-26T18:56:03.130Z,101022.42
2018-11-26T18:58:34.812Z,101022.45
2018-11-26T19:01:07.524Z,101027.06
2018-11-26T19:03:37.746Z,101025.34
2018-11-26T19:06:08.174Z,101033.37
2018-11-26T19:08:38.377Z,101032.50
2018-11-26T19:11:11.910Z,101030.27
2018-11-26T19:14:08.154Z,101029.20
2018-11-26T19:16:41.784Z,101023.22
2018-11-26T19:19:11.965Z,101028.70
2018-11-26T19:21:42.839Z,101029.30
2018-11-26T19:24:12.970Z,101027.20
2018-11-26T19:26:43.756Z,101031.52
2018-11-26T19:29:14.486Z,101027.93
2018-11-26T19:31:45.389Z,101025.55
2018-11-26T19:34:18.765Z,101028.02
2018-11-26T19:36:49.672Z,101031.40
2018-11-26T19:39:20.825Z,101033.10
2018-11-26T19:41:52.263Z,101041.76
2018-11-26T19:44:23.683Z,101044.03
2018-11-26T19:46:53.825Z,101037.37
2018-11-26T19:49:24.464Z,101040.22
2018-11-26T19:51:55.301Z,101045.30
2018-11-26T19:54:25.935Z,101045.74
2018-11-26T19:56:57.873Z,101042.83
2018-11-26T19:59:28.687Z,101052.60
2018-11-26T20:02:00.125Z,101054.63
2018-11-26T20:04:42.724Z,101058.21
2018-11-26T20:07:13.022Z,101053.35
2018-11-26T20:09:45.096Z,101055.05
2018-11-26T20:12:15.815Z,101058.64
2018-11-26T20:14:47.617Z,101065.31
2018-11-26T20:17:18.322Z,101062.48
2018-11-26T20:19:48.395Z,101066.70
2018-11-26T20:22:19.841Z,101068.78
2018-11-26T20:24:50.098Z,101070.93
2018-11-26T20:27:22.602Z,101078.30
2018-11-26T20:29:53.585Z,101082.20
2018-11-26T20:32:30.123Z,101089.95
2018-11-26T20:35:34.731Z,101084.73
2018-11-26T20:38:05.874Z,101091.20
2018-11-26T20:40:38.040Z,101088.55
2018-11-26T20:43:11.508Z,101094.49
2018-11-26T20:45:43.692Z,101096.17
2018-11-26T20:48:14.330Z,101094.75
2018-11-26T20:50:52.783Z,101099.02
2018-11-26T20:53:25.715Z,101099.55
2018-11-26T20:56:13.782Z,101107.52
2018-11-26T20:58:44.398Z,101105.51
2018-11-26T21:01:16.070Z,101111.80
2018-11-26T21:03:46.465Z,101110.97
2018-11-26T21:06:16.694Z,101112.19
2018-11-26T21:08:47.064Z,101110.34
2018-11-26T21:11:17.390Z,101111.76
2018-11-26T21:13:47.614Z,101108.81
2018-11-26T21:16:18.011Z,101116.93
2018-11-26T21:18:48.330Z,101116.50
2018-11-26T21:21:18.693Z,101120.07
2018-11-26T21:23:49.157Z,101117.31
2018-11-26T21:26:19.449Z,101124.20
2018-11-26T21:28:49.921Z,101126.74
2018-11-26T21:31:20.209Z,101127.59
2018-11-26T21:33:50.541Z,101124.17
2018-11-26T21:36:20.762Z,101124.19
2018-11-26T21:38:51.106Z,101128.48
2018-11-26T21:41:21.387Z,101125.41
2018-11-26T21:43:51.775Z,101131.41
2018-11-26T21:46:22.038Z,101131.58
2018-11-26T21:48:52.339Z,101132.78
2018-11-26T21:51:22.634Z,101129.36
2018-11-26T21:53:52.853Z,101133.74
2018-11-26T21:56:22.942Z,101131.91
2018-11-26T21:58:53.365Z,101133.84
2018-11-26T22:01:23.690Z,101143.27
2018-11-26T22:03:54.106Z,101146.78
2018-11-26T22:06:24.508Z,101143.39
2018-11-26T22:08:54.741Z,101149.34
2018-11-26T22:11:30.228Z,101147.71
2018-11-26T22:13:55.429Z,101145.89
2018-11-26T22:16:25.581Z,101151.82
2018-11-26T22:18:55.960Z,101151.47
2018-11-26T22:21:26.269Z,101155.75
2018-11-26T22:23:56.511Z,101149.30
2018-11-26T22:26:26.813Z,101146.82
2018-11-26T22:28:57.221Z,101144.72
2018-11-26T22:31:27.676Z,101142.50
2018-11-26T22:33:57.961Z,101147.49
2018-11-26T22:36:28.285Z,101153.88
2018-11-26T22:38:58.717Z,101154.98
2018-11-26T22:41:30.535Z,101160.62
2018-11-26T22:44:01.392Z,101162.37
2018-11-26T22:46:32.314Z,101168.70
2018-11-26T22:49:03.024Z,101166.58
2018-11-26T22:51:34.614Z,101169.28
2018-11-26T22:54:05.143Z,101172.61
2018-11-26T22:56:36.593Z,101166.22
2018-11-26T22:59:06.947Z,101167.14
2018-11-26T23:01:38.254Z,101167.12
2018-11-26T23:04:08.914Z,101163.69
2018-11-26T23:06:39.497Z,101166.33
2018-11-26T23:09:12.291Z,101170.08
2018-11-26T23:11:43.069Z,101170.58
2018-11-26T23:14:14.331Z,101171.55
2018-11-26T23:16:44.998Z,101171.98
2018-11-26T23:19:15.917Z,101172.02
2018-11-26T23:21:45.915Z,101171.27
2018-11-26T23:24:17.394Z,101172.91
2018-11-26T23:26:48.926Z,101176.73
2018-11-26T23:29:20.587Z,101182.30
2018-11-26T23:31:51.982Z,101185.75
2018-11-26T23:34:22.538Z,101183.66
2018-11-26T23:36:53.106Z,101183.22
2018-11-26T23:39:23.941Z,101179.41
2018-11-26T23:41:54.625Z,101183.20
2018-11-26T23:44:24.703Z,101176.02
2018-11-26T23:46:55.568Z,101176.88
2018-11-26T23:49:26.596Z,101180.30
2018-11-26T23:51:57.563Z,101179.10
2018-11-26T23:54:29.011Z,101179.84
2018-11-26T23:57:00.770Z,101181.53
2018-11-26T23:59:31.629Z,101178.98
